createdAt,value
2023-05-08T00:02:14.813Z,6.50
2023-05-08T00:04:43.073Z,6.75
2023-05-08T00:07:11.355Z,6.20
2023-05-08T00:09:39.404Z,6.07
2023-05-08T00:12:07.714Z,6.28
2023-05-08T00:14:36.187Z,6.00
2023-05-08T00:17:04.504Z,6.20
2023-05-08T00:19:33.987Z,6.40
2023-05-08T00:22:02.088Z,5.30
2023-05-08T00:24:30.183Z,6.00
2023-05-08T00:26:58.312Z,6.07
2023-05-08T00:29:26.677Z,6.25
2023-05-08T00:31:54.916Z,6.25
2023-05-08T00:34:23.186Z,5.68
2023-05-08T00:36:52.820Z,6.05
2023-05-08T00:39:21.095Z,5.78
2023-05-08T00:41:49.162Z,6.10
2023-05-08T00:44:17.599Z,5.80
2023-05-08T00:46:47.341Z,6.32
2023-05-08T00:49:17.050Z,6.15
2023-05-08T00:51:47.881Z,6.22
2023-05-08T00:54:17.640Z,6.70
2023-05-08T00:56:47.399Z,6.15
2023-05-08T00:59:17.809Z,5.95
2023-05-08T01:01:47.611Z,5.50
2023-05-08T01:04:16.257Z,5.95
2023-05-08T01:06:44.513Z,5.88
2023-05-08T01:09:12.703Z,6.57
2023-05-08T01:11:50.765Z,6.57
2023-05-08T01:14:26.443Z,5.47
2023-05-08T01:17:06.318Z,6.35
2023-05-08T01:20:04.583Z,5.85
2023-05-08T01:22:58.880Z,5.60
2023-05-08T01:26:11.270Z,5.93
2023-05-08T01:29:17.166Z,5.47
2023-05-08T01:32:10.202Z,6.22
2023-05-08T01:34:50.302Z,6.43
2023-05-08T01:37:30.639Z,5.63
2023-05-08T01:40:12.302Z,5.60
2023-05-08T01:42:51.526Z,6.32
2023-05-08T01:45:27.818Z,5.82
2023-05-08T01:48:09.082Z,6.13
2023-05-08T01:50:43.404Z,6.20
2023-05-08T01:53:23.905Z,5.78
2023-05-08T01:55:58.883Z,5.90
2023-05-08T01:58:29.331Z,5.70
2023-05-08T02:01:01.027Z,5.85
2023-05-08T02:03:33.413Z,5.82
2023-05-08T02:06:04.328Z,6.00
2023-05-08T02:08:36.011Z,6.25
2023-05-08T02:11:07.856Z,6.45
2023-05-08T02:13:38.327Z,5.53
2023-05-08T02:16:12.372Z,5.85
2023-05-08T02:18:52.114Z,5.78
2023-05-08T02:21:21.665Z,6.00
2023-05-08T02:23:51.842Z,6.18
2023-05-08T02:26:23.082Z,6.43
2023-05-08T02:28:56.316Z,6.47
2023-05-08T02:31:25.436Z,6.43
2023-05-08T02:33:55.419Z,5.72
2023-05-08T02:36:25.089Z,6.45
2023-05-08T02:38:59.272Z,5.63
2023-05-08T02:41:31.790Z,5.65
2023-05-08T02:44:00.301Z,5.88
2023-05-08T02:46:40.474Z,6.07
2023-05-08T02:49:23.858Z,5.35
2023-05-08T02:52:00.997Z,5.35
2023-05-08T02:54:39.339Z,5.88
2023-05-08T02:57:19.739Z,5.38
2023-05-08T03:00:00.521Z,5.07
2023-05-08T03:02:40.168Z,5.43
2023-05-08T03:05:16.538Z,6.22
2023-05-08T03:07:50.688Z,6.35
2023-05-08T03:10:23.242Z,6.22
2023-05-08T03:12:55.380Z,6.07
2023-05-08T03:15:31.085Z,6.35
2023-05-08T03:18:07.388Z,5.28
2023-05-08T03:20:42.761Z,5.88
2023-05-08T03:23:14.967Z,5.75
2023-05-08T03:25:45.254Z,6.00
2023-05-08T03:28:16.061Z,6.13
2023-05-08T03:30:45.004Z,6.00
2023-05-08T03:33:17.865Z,6.10
2023-05-08T03:35:50.204Z,6.70
2023-05-08T03:38:18.524Z,6.38
2023-05-08T03:40:47.412Z,6.10
2023-05-08T03:43:19.013Z,5.95
2023-05-08T03:45:48.503Z,6.05
2023-05-08T03:48:19.472Z,6.35
2023-05-08T03:50:49.968Z,5.85
2023-05-08T03:53:18.370Z,5.80
2023-05-08T03:55:46.967Z,6.20
2023-05-08T03:58:25.586Z,5.90
2023-05-08T04:01:12.890Z,6.18
2023-05-08T04:03:55.585Z,6.22
2023-05-08T04:06:42.008Z,5.18
2023-05-08T04:09:20.823Z,5.90
2023-05-08T04:12:03.401Z,5.60
2023-05-08T04:14:45.215Z,5.63
2023-05-08T04:17:23.377Z,5.70
2023-05-08T04:20:03.911Z,6.20
2023-05-08T04:22:37.045Z,5.88
2023-05-08T04:25:18.574Z,5.93
2023-05-08T04:27:55.004Z,5.93
2023-05-08T04:30:24.216Z,6.28
2023-05-08T04:32:55.673Z,6.45
2023-05-08T04:35:50.545Z,6.13
2023-05-08T04:38:20.957Z,5.78
2023-05-08T04:40:49.202Z,6.32
2023-05-08T04:43:17.465Z,6.32
2023-05-08T04:45:45.668Z,5.75
2023-05-08T04:48:16.814Z,5.72
2023-05-08T04:50:44.968Z,6.05
2023-05-08T04:53:13.582Z,6.57
2023-05-08T04:55:43.496Z,6.72
2023-05-08T04:58:12.280Z,8.10
2023-05-08T05:00:40.413Z,7.22
2023-05-08T05:03:09.391Z,7.05
2023-05-08T05:05:38.790Z,6.53
2023-05-08T05:08:07.806Z,6.00
2023-05-08T05:10:36.204Z,7.90
2023-05-08T05:13:05.772Z,6.65
2023-05-08T05:15:34.518Z,8.07
2023-05-08T05:18:02.750Z,6.60
2023-05-08T05:20:31.158Z,6.82
2023-05-08T05:23:00.317Z,6.47
2023-05-08T05:25:28.549Z,7.78
2023-05-08T05:27:56.780Z,7.35
2023-05-08T05:30:27.005Z,6.70
2023-05-08T05:32:55.268Z,7.65
2023-05-08T05:35:25.751Z,7.57
2023-05-08T05:37:54.988Z,7.75
2023-05-08T05:40:23.224Z,7.32
2023-05-08T05:42:52.172Z,7.57
2023-05-08T05:45:21.449Z,7.78
2023-05-08T05:47:53.965Z,7.15
2023-05-08T05:50:24.056Z,7.60
2023-05-08T05:52:52.739Z,7.63
2023-05-08T05:55:22.038Z,7.38
2023-05-08T05:57:50.414Z,7.38
2023-05-08T06:00:21.481Z,7.15
2023-05-08T06:02:55.437Z,7.43
2023-05-08T06:05:24.066Z,6.82
2023-05-08T06:07:52.844Z,7.47
2023-05-08T06:10:21.105Z,7.40
2023-05-08T06:12:49.282Z,7.15
2023-05-08T06:15:18.454Z,6.85
2023-05-08T06:17:48.034Z,7.10
2023-05-08T06:20:17.836Z,6.75
2023-05-08T06:22:45.985Z,7.50
2023-05-08T06:25:14.320Z,7.63
2023-05-08T06:27:42.706Z,7.28
2023-05-08T06:30:12.314Z,6.70
2023-05-08T06:32:40.468Z,7.10
2023-05-08T06:35:10.213Z,7.40
2023-05-08T06:37:40.239Z,7.03
2023-05-08T06:40:15.598Z,6.82
2023-05-08T06:42:43.809Z,6.72
2023-05-08T06:45:13.641Z,6.75
2023-05-08T06:47:41.991Z,7.47
2023-05-08T06:50:11.307Z,7.53
2023-05-08T06:52:40.959Z,7.32
2023-05-08T06:55:10.093Z,7.53
2023-05-08T06:57:38.247Z,7.07
2023-05-08T07:00:07.897Z,7.38
2023-05-08T07:02:36.124Z,6.93
2023-05-08T07:05:04.855Z,7.63
2023-05-08T07:07:33.180Z,8.38
2023-05-08T07:10:02.914Z,7.78
2023-05-08T07:12:31.056Z,8.25
2023-05-08T07:14:59.681Z,7.80
2023-05-08T07:17:30.797Z,7.95
2023-05-08T07:19:58.988Z,7.57
2023-05-08T07:22:27.194Z,6.82
2023-05-08T07:24:55.321Z,8.43
2023-05-08T07:27:24.902Z,8.25
2023-05-08T07:29:53.744Z,7.60
2023-05-08T07:32:21.929Z,7.00
2023-05-08T07:34:50.158Z,8.52
2023-05-08T07:37:18.456Z,9.25
2023-05-08T07:39:47.424Z,8.13
2023-05-08T07:42:15.616Z,7.25
2023-05-08T07:44:53.541Z,7.82
2023-05-08T07:47:23.311Z,7.90
2023-05-08T07:49:51.425Z,8.05
2023-05-08T07:52:19.496Z,7.93
2023-05-08T07:54:47.731Z,8.02
2023-05-08T07:57:15.937Z,8.00
2023-05-08T07:59:45.506Z,8.27
2023-05-08T08:02:14.318Z,8.32
2023-05-08T08:04:42.508Z,8.35
2023-05-08T08:07:10.646Z,8.90
2023-05-08T08:09:38.763Z,8.77
2023-05-08T08:12:07.196Z,8.45
2023-05-08T08:14:35.346Z,9.70
2023-05-08T08:17:04.850Z,8.63
2023-05-08T08:19:33.091Z,8.57
2023-05-08T08:22:01.268Z,8.55
2023-05-08T08:24:29.737Z,8.13
2023-05-08T08:26:58.060Z,9.07
2023-05-08T08:29:26.549Z,9.18
2023-05-08T08:31:54.696Z,7.82
2023-05-08T08:34:24.561Z,9.07
2023-05-08T08:36:52.781Z,9.00
2023-05-08T08:39:21.123Z,8.88
2023-05-08T08:41:49.381Z,8.60
2023-05-08T08:44:17.666Z,8.90
2023-05-08T08:46:52.854Z,8.43
2023-05-08T08:49:31.933Z,8.05
2023-05-08T08:52:04.044Z,8.20
2023-05-08T08:54:37.075Z,8.68
2023-05-08T08:57:08.994Z,8.27
2023-05-08T08:59:41.598Z,7.85
2023-05-08T09:02:17.701Z,8.02
2023-05-08T09:04:50.814Z,8.27
2023-05-08T09:07:19.585Z,8.77
2023-05-08T09:09:49.096Z,8.38
2023-05-08T09:12:17.394Z,9.65
2023-05-08T09:14:45.686Z,9.02
2023-05-08T09:17:14.214Z,8.55
2023-05-08T09:19:43.137Z,8.15
2023-05-08T09:22:14.150Z,8.55
2023-05-08T09:25:00.241Z,7.88
2023-05-08T09:27:30.750Z,7.90
2023-05-08T09:30:05.833Z,7.75
2023-05-08T09:32:37.155Z,7.65
2023-05-08T09:35:08.084Z,7.30
2023-05-08T09:37:41.209Z,7.85
2023-05-08T09:40:18.713Z,7.72
2023-05-08T09:42:47.525Z,8.18
2023-05-08T09:45:29.620Z,7.82
2023-05-08T09:47:58.199Z,6.97
2023-05-08T09:50:27.266Z,6.35
2023-05-08T09:52:57.654Z,6.82
2023-05-08T09:55:26.136Z,7.40
2023-05-08T09:57:57.640Z,7.25
2023-05-08T10:00:27.539Z,7.20
2023-05-08T10:02:59.424Z,6.85
2023-05-08T10:05:31.753Z,6.88
2023-05-08T10:08:21.045Z,7.45
2023-05-08T10:10:49.528Z,6.95
2023-05-08T10:13:18.157Z,6.60
2023-05-08T10:15:50.161Z,6.80
2023-05-08T10:18:21.743Z,6.75
2023-05-08T10:20:52.136Z,7.55
2023-05-08T10:23:23.461Z,8.00
2023-05-08T10:26:05.334Z,7.75
2023-05-08T10:28:41.649Z,7.57
2023-05-08T10:31:18.675Z,7.50
2023-05-08T10:33:51.754Z,7.28
2023-05-08T10:36:20.189Z,7.40
2023-05-08T10:38:51.662Z,7.40
2023-05-08T10:41:21.513Z,7.00
2023-05-08T10:43:51.410Z,6.80
2023-05-08T10:46:44.532Z,5.40
2023-05-08T10:49:24.220Z,5.47
2023-05-08T10:52:09.327Z,6.38
2023-05-08T10:55:20.254Z,7.07
2023-05-08T10:58:11.593Z,8.32
2023-05-08T11:01:18.163Z,8.30
2023-05-08T11:03:55.220Z,8.40
2023-05-08T11:06:44.931Z,8.55
2023-05-08T11:09:22.871Z,8.85
2023-05-08T11:12:22.843Z,8.07
2023-05-08T11:15:02.884Z,8.88
2023-05-08T11:17:31.666Z,8.57
2023-05-08T11:20:02.517Z,8.13
2023-05-08T11:22:33.306Z,9.02
2023-05-08T11:25:06.415Z,8.55
2023-05-08T11:28:02.122Z,8.38
2023-05-08T11:30:39.826Z,9.05
2023-05-08T11:33:16.568Z,8.02
2023-05-08T11:35:52.556Z,7.18
2023-05-08T11:38:31.119Z,8.00
2023-05-08T11:41:02.570Z,7.90
2023-05-08T11:44:21.815Z,8.05
2023-05-08T11:46:56.426Z,8.18
2023-05-08T11:49:29.835Z,8.20
2023-05-08T11:52:00.958Z,8.07
2023-05-08T11:54:32.629Z,9.13
2023-05-08T11:57:06.557Z,8.05
2023-05-08T11:59:38.294Z,8.23
2023-05-08T12:02:09.132Z,8.07
2023-05-08T12:04:46.658Z,8.00
2023-05-08T12:07:16.201Z,7.50
2023-05-08T12:09:44.746Z,7.38
2023-05-08T12:12:13.093Z,6.40
2023-05-08T12:14:42.968Z,7.80
2023-05-08T12:17:11.959Z,8.25
2023-05-08T12:19:40.590Z,7.95
2023-05-08T12:22:10.814Z,7.60
2023-05-08T12:24:40.732Z,8.15
2023-05-08T12:27:10.006Z,9.02
2023-05-08T12:29:39.128Z,10.10
2023-05-08T12:32:09.063Z,9.98
2023-05-08T12:34:37.851Z,10.32
2023-05-08T12:37:06.653Z,9.82
2023-05-08T12:39:38.642Z,11.32
2023-05-08T12:42:07.136Z,11.50
2023-05-08T12:44:35.457Z,10.90
2023-05-08T12:47:06.213Z,10.20
2023-05-08T12:49:36.122Z,9.95
2023-05-08T12:52:07.120Z,9.90
2023-05-08T12:54:41.471Z,9.32
2023-05-08T12:57:13.762Z,8.70
2023-05-08T12:59:43.181Z,8.93
2023-05-08T13:02:27.580Z,9.95
2023-05-08T13:04:58.056Z,9.50
2023-05-08T13:07:33.074Z,9.50
2023-05-08T13:10:04.963Z,9.57
2023-05-08T13:12:33.842Z,9.52
2023-05-08T13:15:04.799Z,8.63
2023-05-08T13:17:33.333Z,8.65
2023-05-08T13:20:05.977Z,8.30
2023-05-08T13:22:42.244Z,7.68
2023-05-08T13:25:11.276Z,7.93
2023-05-08T13:27:39.896Z,8.02
2023-05-08T13:30:13.776Z,7.63
2023-05-08T13:32:42.461Z,6.32
2023-05-08T13:35:12.328Z,6.70
2023-05-08T13:37:40.846Z,6.90
2023-05-08T13:40:10.563Z,7.13
2023-05-08T13:42:39.360Z,7.35
2023-05-08T13:45:10.788Z,7.68
2023-05-08T13:47:39.241Z,7.65
2023-05-08T13:50:10.219Z,8.30
2023-05-08T13:52:41.839Z,9.95
2023-05-08T13:55:12.819Z,8.45
2023-05-08T13:57:42.118Z,7.95
2023-05-08T14:00:12.821Z,8.20
2023-05-08T14:02:41.060Z,7.43
2023-05-08T14:05:10.118Z,8.23
2023-05-08T14:07:41.632Z,9.02
2023-05-08T14:10:11.154Z,10.05
2023-05-08T14:12:40.272Z,9.95
2023-05-08T14:15:11.621Z,9.00
2023-05-08T14:17:40.271Z,10.93
2023-05-08T14:20:11.548Z,10.02
2023-05-08T14:22:41.504Z,10.20
2023-05-08T14:25:11.236Z,8.40
2023-05-08T14:27:39.487Z,9.68
2023-05-08T14:30:09.655Z,9.88
2023-05-08T14:32:38.017Z,9.45
2023-05-08T14:35:09.560Z,9.73
2023-05-08T14:37:38.159Z,9.30
2023-05-08T14:40:10.291Z,9.48
2023-05-08T14:42:41.654Z,8.23
2023-05-08T14:45:20.113Z,7.80
2023-05-08T14:48:09.208Z,8.88
2023-05-08T15:10:06.388Z,5.82
2023-05-08T15:12:34.852Z,6.55
2023-05-08T15:15:04.643Z,5.50
2023-05-08T15:17:35.291Z,6.03
2023-05-08T15:20:04.849Z,5.93
2023-05-08T15:22:33.296Z,6.78
2023-05-08T15:25:07.567Z,6.15
2023-05-08T15:27:35.823Z,6.55
2023-05-08T15:30:04.307Z,6.95
2023-05-08T15:32:32.700Z,7.60
2023-05-08T15:35:00.863Z,7.93
2023-05-08T15:37:29.754Z,6.43
2023-05-08T15:40:00.185Z,7.18
2023-05-08T15:42:30.083Z,6.63
2023-05-08T15:44:58.562Z,6.80
2023-05-08T15:47:27.765Z,6.55
2023-05-08T15:49:56.208Z,5.95
2023-05-08T15:52:24.642Z,5.82
2023-05-08T15:54:53.539Z,5.25
2023-05-08T15:57:21.817Z,5.72
2023-05-08T15:59:51.632Z,5.28
2023-05-08T16:02:20.101Z,5.90
2023-05-08T16:04:48.977Z,5.20
2023-05-08T16:07:37.754Z,4.53
2023-05-08T16:10:07.974Z,4.95
2023-05-08T16:12:36.435Z,5.80
2023-05-08T16:15:07.153Z,5.72
2023-05-08T16:17:35.845Z,5.20
2023-05-08T16:20:04.504Z,4.40
2023-05-08T16:22:32.985Z,4.40
2023-05-08T16:25:26.561Z,3.95
2023-05-08T16:27:55.023Z,3.67
2023-05-08T16:30:24.882Z,4.13
2023-05-08T16:32:53.605Z,4.57
2023-05-08T16:35:23.072Z,4.68
2023-05-08T16:37:51.559Z,5.78
2023-05-08T16:40:20.128Z,4.65
2023-05-08T16:42:48.526Z,4.25
2023-05-08T16:45:16.996Z,3.60
2023-05-08T16:47:46.883Z,3.70
2023-05-08T16:50:15.347Z,3.72
2023-05-08T16:52:43.707Z,3.63
2023-05-08T16:55:12.090Z,3.22
2023-05-08T16:57:40.954Z,2.75
2023-05-08T17:00:10.608Z,2.45
2023-05-08T17:02:40.279Z,2.30
2023-05-08T17:05:11.444Z,2.20
2023-05-08T17:07:40.705Z,2.15
2023-05-08T17:10:10.608Z,2.13
2023-05-08T17:12:38.941Z,1.80
2023-05-08T17:15:08.862Z,2.22
2023-05-08T17:17:37.228Z,1.75
2023-05-08T17:20:07.218Z,1.90
2023-05-08T17:22:37.204Z,2.20
2023-05-08T17:25:06.428Z,1.92
2023-05-08T17:27:35.932Z,1.60
2023-05-08T17:30:04.941Z,2.00
2023-05-08T17:32:33.728Z,1.85
2023-05-08T17:35:02.423Z,2.00
2023-05-08T17:37:34.372Z,2.17
2023-05-08T17:40:07.994Z,2.22
2023-05-08T17:42:37.283Z,3.17
2023-05-08T17:45:08.992Z,2.60
2023-05-08T17:47:48.353Z,2.45
2023-05-08T17:50:26.101Z,2.22
2023-05-08T17:53:21.164Z,2.60
2023-05-08T17:59:26.227Z,2.70
2023-05-08T18:05:35.258Z,2.65
2023-05-08T18:09:41.154Z,2.40
2023-05-08T18:12:30.569Z,2.60
2023-05-08T18:15:08.785Z,2.63
2023-05-08T18:17:40.037Z,2.80
2023-05-08T18:20:17.710Z,2.90
2023-05-08T18:22:52.076Z,2.78
2023-05-08T18:25:20.923Z,2.85
2023-05-08T18:28:28.890Z,2.90
2023-05-08T18:31:13.486Z,3.13
2023-05-08T18:34:33.528Z,2.85
2023-05-08T18:37:30.872Z,2.90
2023-05-08T18:40:05.036Z,2.88
2023-05-08T18:43:25.364Z,2.78
2023-05-08T18:50:13.609Z,3.05
2023-05-08T18:52:47.900Z,3.00
2023-05-08T18:55:20.591Z,2.90
2023-05-08T18:57:51.460Z,3.08
2023-05-08T19:00:48.012Z,3.00
2023-05-08T19:03:35.418Z,2.60
2023-05-08T19:06:04.258Z,2.85
2023-05-08T19:08:34.582Z,3.08
2023-05-08T19:11:03.309Z,3.10
2023-05-08T19:13:42.648Z,3.17
2023-05-08T19:16:20.682Z,3.03
2023-05-08T19:18:50.701Z,3.05
2023-05-08T19:21:29.643Z,2.88
2023-05-08T19:23:58.535Z,2.83
2023-05-08T19:26:27.854Z,2.60
2023-05-08T19:29:07.849Z,3.13
2023-05-08T19:32:06.550Z,3.42
2023-05-08T19:34:40.039Z,3.35
2023-05-08T19:37:09.229Z,3.03
2023-05-08T19:39:43.011Z,3.60
2023-05-08T19:42:26.190Z,3.42
2023-05-08T19:53:19.669Z,3.72
2023-05-08T19:55:49.370Z,3.50
2023-05-08T19:58:18.479Z,3.80
2023-05-08T20:00:53.472Z,3.80
2023-05-08T20:03:22.115Z,3.53
2023-05-08T20:05:53.082Z,3.90
2023-05-08T20:08:23.138Z,3.67
2023-05-08T20:10:52.683Z,3.55
2023-05-08T20:13:21.385Z,3.08
2023-05-08T20:15:49.909Z,3.53
2023-05-08T20:18:18.427Z,3.75
2023-05-08T20:20:47.858Z,3.80
2023-05-08T20:23:16.225Z,3.38
2023-05-08T20:25:47.746Z,3.30
2023-05-08T20:28:22.021Z,4.07
2023-05-08T20:30:54.410Z,3.88
2023-05-08T20:33:22.950Z,3.38
2023-05-08T20:35:51.322Z,3.63
2023-05-08T20:38:19.940Z,3.97
2023-05-08T20:40:49.722Z,3.60
2023-05-08T20:43:19.364Z,4.10
2023-05-08T20:45:49.092Z,3.95
2023-05-08T20:48:17.562Z,3.80
2023-05-08T20:50:48.501Z,4.07
2023-05-08T20:53:17.080Z,3.90
2023-05-08T20:55:45.520Z,3.83
2023-05-08T20:58:15.151Z,4.00
2023-05-08T21:00:43.587Z,3.72
2023-05-08T21:03:11.909Z,3.90
2023-05-08T21:05:40.212Z,4.35
2023-05-08T21:08:08.718Z,3.60
2023-05-08T21:10:37.132Z,4.13
2023-05-08T21:13:06.144Z,4.22
2023-05-08T21:15:35.964Z,4.30
2023-05-08T21:18:04.614Z,3.90
2023-05-08T21:20:34.328Z,3.88
2023-05-08T21:23:02.713Z,4.22
2023-05-08T21:25:31.054Z,4.05
2023-05-08T21:27:59.634Z,4.20
2023-05-08T21:30:27.869Z,4.10
2023-05-08T21:32:57.663Z,4.60
2023-05-08T21:35:25.960Z,4.70
2023-05-08T21:37:54.830Z,4.53
2023-05-08T21:40:23.386Z,4.05
2023-05-08T21:42:54.277Z,4.20
2023-05-08T21:45:23.034Z,4.40
2023-05-08T21:47:51.653Z,4.47
2023-05-08T21:50:21.788Z,4.93
2023-05-08T21:52:50.974Z,4.65
2023-05-08T21:55:19.795Z,4.68
2023-05-08T21:57:48.135Z,4.72
2023-05-08T22:00:17.698Z,5.05
2023-05-08T22:02:49.122Z,4.88
2023-05-08T22:05:17.631Z,4.75
2023-05-08T22:07:47.559Z,5.10
2023-05-08T22:10:16.016Z,5.05
2023-05-08T22:12:44.310Z,4.65
2023-05-08T22:15:25.547Z,4.82
2023-05-08T22:17:57.296Z,5.25
2023-05-08T22:20:25.986Z,5.22
2023-05-08T22:22:55.872Z,5.18
2023-05-08T22:25:25.224Z,5.40
2023-05-08T22:27:53.885Z,5.78
2023-05-08T22:30:22.514Z,5.65
2023-05-08T22:32:56.078Z,6.20
2023-05-08T22:35:26.939Z,6.15
2023-05-08T22:37:58.026Z,5.53
2023-05-08T22:40:27.305Z,6.38
2023-05-08T22:42:58.696Z,6.20
2023-05-08T22:45:27.935Z,6.63
2023-05-08T22:47:57.137Z,6.28
2023-05-08T22:50:25.535Z,6.47
2023-05-08T22:52:53.827Z,5.82
2023-05-08T22:55:23.847Z,6.35
2023-05-08T22:57:52.184Z,6.40
2023-05-08T23:00:21.652Z,7.43
2023-05-08T23:02:50.157Z,6.22
2023-05-08T23:05:18.685Z,6.93
2023-05-08T23:07:47.202Z,6.63
2023-05-08T23:10:15.918Z,6.70
2023-05-08T23:12:45.722Z,6.80
2023-05-08T23:15:14.543Z,6.65
2023-05-08T23:17:43.169Z,6.25
2023-05-08T23:20:12.727Z,6.82
2023-05-08T23:22:41.069Z,7.28
2023-05-08T23:25:12.025Z,7.68
2023-05-08T23:27:40.601Z,7.53
2023-05-08T23:30:13.007Z,7.88
2023-05-08T23:32:41.571Z,7.55
2023-05-08T23:35:10.502Z,7.25
2023-05-08T23:37:39.058Z,6.97
2023-05-08T23:40:10.167Z,6.78
2023-05-08T23:42:39.701Z,7.00
2023-05-08T23:45:12.098Z,7.78
2023-05-08T23:47:40.647Z,7.25
2023-05-08T23:50:09.624Z,7.82
2023-05-08T23:52:38.072Z,7.38
2023-05-08T23:55:07.688Z,7.13
2023-05-08T23:57:36.109Z,6.80
